Overview Statistics Trail Chart Weather Telemetry Raw packets
 

This is the latest recevied weather packets stored in our database for station/object MEGLR. If no packets are shown the sender has not sent any weather packets the latest 10 day(s).

<< 31 32 33 34 35 36 37 >>
Time Temp. Humidity Pressure Rain* Wind** Luminosity Snow
1788219002 18.89° C 73% 0 hPa - - - -
1788218403 18.89° C 73% 0 hPa - - - -
1788217803 18.89° C 72% 0 hPa - - - -
1788217203 19.44° C 71% 0 hPa - - - -
1788216603 20° C 70% 0 hPa - - - -
1788216021 20° C 68% 0 hPa - - - -
1788214807 20.56° C 66% 0 hPa - - - -
1788214203 20.56° C 67% 0 hPa - - - -
1788213603 20° C 68% 0 hPa - - - -
1788213003 21.11° C 66% 0 hPa - - - -
1788212408 20° C 70% 0 hPa - - - -
1788211804 20° C 69% 0 hPa - - - -
1788211203 20° C 69% 0 hPa - - - -
1788210603 20° C 70% 0 hPa - - - -
1788210008 20° C 67% 0 hPa - - - -
1788209403 20° C 68% 0 hPa - - - -
1788208803 19.44° C 71% 0 hPa - - - -
1788208203 19.44° C 70% 0 hPa - - - -
1788207603 19.44° C 69% 0 hPa - - - -
1788207003 18.89° C 69% 0 hPa - - - -
1788206404 18.89° C 69% 0 hPa - - - -
1788205803 18.89° C 69% 0 hPa - - - -
1788205203 18.89° C 67% 0 hPa - - - -
1788204603 18.89° C 69% 0 hPa - - - -
1788204003 18.33° C 66% 0 hPa - - - -

* Rain since midnight (hover to see other rain measurements)
** Current wind speed in m/s (hover to see current wind gust speed)